sensor_id;sensor_type;location;lat;lon;timestamp;temperature;humidity
13375;DHT22;6756;51.354;15.754;2022-07-10T00:00:10;12.50;99.90
13375;DHT22;6756;51.354;15.754;2022-07-10T00:04:11;12.50;99.90
13375;DHT22;6756;51.354;15.754;2022-07-10T00:08:12;12.60;99.90
13375;DHT22;6756;51.354;15.754;2022-07-10T00:12:12;12.60;99.90
13375;DHT22;6756;51.354;15.754;2022-07-10T00:16:13;12.60;99.90
13375;DHT22;6756;51.354;15.754;2022-07-10T00:20:15;12.60;99.90
13375;DHT22;6756;51.354;15.754;2022-07-10T00:24:16;12.50;99.90
13375;DHT22;6756;51.354;15.754;2022-07-10T00:28:16;12.50;99.90
13375;DHT22;6756;51.354;15.754;2022-07-10T00:32:17;12.50;99.90
13375;DHT22;6756;51.354;15.754;2022-07-10T00:36:18;12.50;99.90
13375;DHT22;6756;51.354;15.754;2022-07-10T00:40:19;12.60;99.90
13375;DHT22;6756;51.354;15.754;2022-07-10T00:44:20;12.60;99.90
13375;DHT22;6756;51.354;15.754;2022-07-10T00:48:21;12.60;99.90
13375;DHT22;6756;51.354;15.754;2022-07-10T00:52:22;12.70;99.90
13375;DHT22;6756;51.354;15.754;2022-07-10T00:56:26;12.70;99.90
13375;DHT22;6756;51.354;15.754;2022-07-10T01:00:27;12.80;99.90
13375;DHT22;6756;51.354;15.754;2022-07-10T01:04:29;12.70;99.90
13375;DHT22;6756;51.354;15.754;2022-07-10T01:08:30;12.70;99.90
13375;DHT22;6756;51.354;15.754;2022-07-10T01:12:31;12.60;99.90
13375;DHT22;6756;51.354;15.754;2022-07-10T01:16:31;12.60;99.90
13375;DHT22;6756;51.354;15.754;2022-07-10T01:20:33;12.60;99.90
13375;DHT22;6756;51.354;15.754;2022-07-10T01:24:33;12.60;99.90
13375;DHT22;6756;51.354;15.754;2022-07-10T01:28:35;12.60;99.90
13375;DHT22;6756;51.354;15.754;2022-07-10T01:32:45;12.50;99.90
13375;DHT22;6756;51.354;15.754;2022-07-10T01:36:46;12.50;99.90
13375;DHT22;6756;51.354;15.754;2022-07-10T01:40:47;12.40;99.90
13375;DHT22;6756;51.354;15.754;2022-07-10T01:44:47;12.40;99.90
13375;DHT22;6756;51.354;15.754;2022-07-10T01:48:48;12.40;99.90
13375;DHT22;6756;51.354;15.754;2022-07-10T01:52:49;12.40;99.90
13375;DHT22;6756;51.354;15.754;2022-07-10T01:56:50;12.50;99.90
13375;DHT22;6756;51.354;15.754;2022-07-10T02:00:50;12.50;99.90
13375;DHT22;6756;51.354;15.754;2022-07-10T02:04:51;12.50;99.90
13375;DHT22;6756;51.354;15.754;2022-07-10T02:08:52;12.60;99.90
13375;DHT22;6756;51.354;15.754;2022-07-10T02:12:53;12.60;99.90
13375;DHT22;6756;51.354;15.754;2022-07-10T02:16:54;12.50;99.90
13375;DHT22;6756;51.354;15.754;2022-07-10T02:20:55;12.50;99.90
13375;DHT22;6756;51.354;15.754;2022-07-10T02:24:56;12.50;99.90
13375;DHT22;6756;51.354;15.754;2022-07-10T02:28:57;12.50;99.90
13375;DHT22;6756;51.354;15.754;2022-07-10T02:32:58;12.40;99.90
13375;DHT22;6756;51.354;15.754;2022-07-10T02:36:59;12.40;99.90
13375;DHT22;6756;51.354;15.754;2022-07-10T02:40:59;12.30;99.90
13375;DHT22;6756;51.354;15.754;2022-07-10T02:45:00;12.20;99.90
13375;DHT22;6756;51.354;15.754;2022-07-10T02:49:01;12.20;99.90
13375;DHT22;6756;51.354;15.754;2022-07-10T02:53:02;12.20;99.90
13375;DHT22;6756;51.354;15.754;2022-07-10T02:57:04;12.20;99.90
13375;DHT22;6756;51.354;15.754;2022-07-10T03:01:05;12.20;99.90
13375;DHT22;6756;51.354;15.754;2022-07-10T03:05:06;12.20;99.90
13375;DHT22;6756;51.354;15.754;2022-07-10T03:09:07;12.10;99.90
13375;DHT22;6756;51.354;15.754;2022-07-10T03:13:08;12.10;99.90
13375;DHT22;6756;51.354;15.754;2022-07-10T03:17:09;12.10;99.90
13375;DHT22;6756;51.354;15.754;2022-07-10T03:21:09;12.00;99.90
13375;DHT22;6756;51.354;15.754;2022-07-10T03:25:10;12.00;99.90
13375;DHT22;6756;51.354;15.754;2022-07-10T03:29:11;12.00;99.90
13375;DHT22;6756;51.354;15.754;2022-07-10T03:33:12;12.00;99.90
13375;DHT22;6756;51.354;15.754;2022-07-10T03:37:13;12.00;99.90
13375;DHT22;6756;51.354;15.754;2022-07-10T03:41:14;12.00;99.90
13375;DHT22;6756;51.354;15.754;2022-07-10T03:45:15;12.00;99.90
13375;DHT22;6756;51.354;15.754;2022-07-10T03:49:16;12.00;99.90
13375;DHT22;6756;51.354;15.754;2022-07-10T03:53:17;12.00;99.90
13375;DHT22;6756;51.354;15.754;2022-07-10T03:57:18;12.00;99.90
13375;DHT22;6756;51.354;15.754;2022-07-10T04:01:37;12.10;99.90
13375;DHT22;6756;51.354;15.754;2022-07-10T04:05:38;12.10;99.90
13375;DHT22;6756;51.354;15.754;2022-07-10T04:09:38;12.10;99.90
13375;DHT22;6756;51.354;15.754;2022-07-10T04:13:39;12.20;99.90
13375;DHT22;6756;51.354;15.754;2022-07-10T04:17:40;12.20;99.90
13375;DHT22;6756;51.354;15.754;2022-07-10T04:21:41;12.20;99.90
13375;DHT22;6756;51.354;15.754;2022-07-10T04:25:42;12.20;99.90
13375;DHT22;6756;51.354;15.754;2022-07-10T04:29:43;12.30;99.90
13375;DHT22;6756;51.354;15.754;2022-07-10T04:33:44;12.30;99.90
13375;DHT22;6756;51.354;15.754;2022-07-10T04:37:45;12.50;99.90
13375;DHT22;6756;51.354;15.754;2022-07-10T04:41:46;12.50;99.90
13375;DHT22;6756;51.354;15.754;2022-07-10T04:45:47;12.40;99.90
13375;DHT22;6756;51.354;15.754;2022-07-10T04:49:48;12.50;99.90
13375;DHT22;6756;51.354;15.754;2022-07-10T04:53:49;12.50;99.90
13375;DHT22;6756;51.354;15.754;2022-07-10T04:57:50;12.60;99.90
13375;DHT22;6756;51.354;15.754;2022-07-10T05:01:50;12.70;99.90
13375;DHT22;6756;51.354;15.754;2022-07-10T05:05:51;12.70;99.90
13375;DHT22;6756;51.354;15.754;2022-07-10T05:09:52;12.70;99.90
13375;DHT22;6756;51.354;15.754;2022-07-10T05:13:53;12.70;99.90
13375;DHT22;6756;51.354;15.754;2022-07-10T05:17:54;12.60;99.90
13375;DHT22;6756;51.354;15.754;2022-07-10T05:21:54;12.70;99.90
13375;DHT22;6756;51.354;15.754;2022-07-10T05:25:55;12.70;99.90
13375;DHT22;6756;51.354;15.754;2022-07-10T05:29:56;12.90;99.90
13375;DHT22;6756;51.354;15.754;2022-07-10T05:33:57;12.90;99.90
13375;DHT22;6756;51.354;15.754;2022-07-10T05:37:58;12.90;99.90
13375;DHT22;6756;51.354;15.754;2022-07-10T05:41:59;12.90;99.90
13375;DHT22;6756;51.354;15.754;2022-07-10T05:45:59;13.00;99.90
13375;DHT22;6756;51.354;15.754;2022-07-10T05:50:00;13.10;99.90
13375;DHT22;6756;51.354;15.754;2022-07-10T05:54:01;13.20;99.90
13375;DHT22;6756;51.354;15.754;2022-07-10T05:58:02;13.30;99.90
13375;DHT22;6756;51.354;15.754;2022-07-10T06:02:03;13.30;99.90
13375;DHT22;6756;51.354;15.754;2022-07-10T06:06:04;13.40;99.90
13375;DHT22;6756;51.354;15.754;2022-07-10T06:10:05;13.40;99.90
13375;DHT22;6756;51.354;15.754;2022-07-10T06:14:06;13.40;99.90
13375;DHT22;6756;51.354;15.754;2022-07-10T06:18:07;13.40;99.90
13375;DHT22;6756;51.354;15.754;2022-07-10T06:22:08;13.50;99.90
13375;DHT22;6756;51.354;15.754;2022-07-10T06:26:27;13.70;99.90
13375;DHT22;6756;51.354;15.754;2022-07-10T06:30:28;13.80;99.90
13375;DHT22;6756;51.354;15.754;2022-07-10T06:34:29;14.00;1.00
13375;DHT22;6756;51.354;15.754;2022-07-10T06:38:30;13.90;99.90
13375;DHT22;6756;51.354;15.754;2022-07-10T06:42:31;14.00;1.00
13375;DHT22;6756;51.354;15.754;2022-07-10T06:46:32;14.00;1.00
13375;DHT22;6756;51.354;15.754;2022-07-10T06:50:33;14.00;99.90
13375;DHT22;6756;51.354;15.754;2022-07-10T06:54:35;14.00;1.00
13375;DHT22;6756;51.354;15.754;2022-07-10T06:58:35;13.90;99.90
13375;DHT22;6756;51.354;15.754;2022-07-10T07:02:37;14.00;99.90
13375;DHT22;6756;51.354;15.754;2022-07-10T07:06:38;14.20;76.90
13375;DHT22;6756;51.354;15.754;2022-07-10T07:10:38;14.20;99.90
13375;DHT22;6756;51.354;15.754;2022-07-10T07:14:39;14.50;99.90
13375;DHT22;6756;51.354;15.754;2022-07-10T07:18:40;14.80;1.00
13375;DHT22;6756;51.354;15.754;2022-07-10T07:22:49;15.10;99.90
13375;DHT22;6756;51.354;15.754;2022-07-10T07:27:12;15.10;1.00
13375;DHT22;6756;51.354;15.754;2022-07-10T07:31:13;15.00;99.90
13375;DHT22;6756;51.354;15.754;2022-07-10T07:35:15;15.00;99.90
13375;DHT22;6756;51.354;15.754;2022-07-10T07:39:16;14.90;99.90
13375;DHT22;6756;51.354;15.754;2022-07-10T07:43:17;14.80;1.00
13375;DHT22;6756;51.354;15.754;2022-07-10T07:47:17;14.50;99.90
13375;DHT22;6756;51.354;15.754;2022-07-10T07:51:18;14.40;1.00
13375;DHT22;6756;51.354;15.754;2022-07-10T07:55:20;14.40;99.90
13375;DHT22;6756;51.354;15.754;2022-07-10T07:59:21;14.50;99.90
13375;DHT22;6756;51.354;15.754;2022-07-10T08:03:22;14.70;1.00
13375;DHT22;6756;51.354;15.754;2022-07-10T08:07:32;14.70;99.90
13375;DHT22;6756;51.354;15.754;2022-07-10T08:11:33;14.60;99.90
13375;DHT22;6756;51.354;15.754;2022-07-10T08:15:34;14.70;99.90
13375;DHT22;6756;51.354;15.754;2022-07-10T08:19:37;14.70;19.50
13375;DHT22;6756;51.354;15.754;2022-07-10T08:23:38;14.50;99.90
13375;DHT22;6756;51.354;15.754;2022-07-10T08:27:39;14.70;99.90
13375;DHT22;6756;51.354;15.754;2022-07-10T08:31:40;14.80;99.90
13375;DHT22;6756;51.354;15.754;2022-07-10T08:35:43;15.00;99.90
13375;DHT22;6756;51.354;15.754;2022-07-10T08:39:44;15.50;39.60
13375;DHT22;6756;51.354;15.754;2022-07-10T08:43:45;15.80;1.00
13375;DHT22;6756;51.354;15.754;2022-07-10T08:47:46;15.70;1.00
13375;DHT22;6756;51.354;15.754;2022-07-10T08:52:03;15.50;1.00
13375;DHT22;6756;51.354;15.754;2022-07-10T08:56:04;14.90;99.90
13375;DHT22;6756;51.354;15.754;2022-07-10T09:00:06;13.40;1.00
13375;DHT22;6756;51.354;15.754;2022-07-10T09:04:07;13.10;99.90
13375;DHT22;6756;51.354;15.754;2022-07-10T09:08:28;13.30;99.90
13375;DHT22;6756;51.354;15.754;2022-07-10T09:12:59;13.80;99.90
13375;DHT22;6756;51.354;15.754;2022-07-10T09:17:01;14.40;99.90
13375;DHT22;6756;51.354;15.754;2022-07-10T09:21:07;14.50;1.00
13375;DHT22;6756;51.354;15.754;2022-07-10T09:25:14;14.30;1.00
13375;DHT22;6756;51.354;15.754;2022-07-10T09:29:16;14.10;1.00
13375;DHT22;6756;51.354;15.754;2022-07-10T09:33:23;13.70;99.90
13375;DHT22;6756;51.354;15.754;2022-07-10T09:37:28;13.30;99.90
13375;DHT22;6756;51.354;15.754;2022-07-10T09:41:30;13.10;99.90
13375;DHT22;6756;51.354;15.754;2022-07-10T09:45:32;13.10;99.90
13375;DHT22;6756;51.354;15.754;2022-07-10T09:49:33;13.30;99.90
13375;DHT22;6756;51.354;15.754;2022-07-10T09:53:42;13.60;1.00
13375;DHT22;6756;51.354;15.754;2022-07-10T09:57:44;13.80;99.90
13375;DHT22;6756;51.354;15.754;2022-07-10T10:01:49;14.30;1.00
13375;DHT22;6756;51.354;15.754;2022-07-10T10:05:55;15.10;99.90
13375;DHT22;6756;51.354;15.754;2022-07-10T10:09:57;15.40;99.90
13375;DHT22;6756;51.354;15.754;2022-07-10T10:14:01;15.40;1.00
13375;DHT22;6756;51.354;15.754;2022-07-10T10:18:03;15.00;1.00
13375;DHT22;6756;51.354;15.754;2022-07-10T10:22:04;15.30;1.00
13375;DHT22;6756;51.354;15.754;2022-07-10T10:26:05;15.30;1.00
13375;DHT22;6756;51.354;15.754;2022-07-10T10:30:07;15.10;1.00
13375;DHT22;6756;51.354;15.754;2022-07-10T10:34:08;14.80;99.90
13375;DHT22;6756;51.354;15.754;2022-07-10T10:38:09;14.50;99.90
13375;DHT22;6756;51.354;15.754;2022-07-10T10:42:36;14.50;1.00
13375;DHT22;6756;51.354;15.754;2022-07-10T10:50:52;15.10;99.90
13375;DHT22;6756;51.354;15.754;2022-07-10T10:59:00;15.20;1.00
13375;DHT22;6756;51.354;15.754;2022-07-10T11:03:16;15.20;94.80
13375;DHT22;6756;51.354;15.754;2022-07-10T11:12:07;16.10;99.90
13375;DHT22;6756;51.354;15.754;2022-07-10T11:16:12;16.40;1.00
13375;DHT22;6756;51.354;15.754;2022-07-10T11:20:13;15.70;1.00
13375;DHT22;6756;51.354;15.754;2022-07-10T11:24:38;15.40;1.00
13375;DHT22;6756;51.354;15.754;2022-07-10T11:28:49;15.20;99.90
13375;DHT22;6756;51.354;15.754;2022-07-10T11:32:50;15.10;99.90
13375;DHT22;6756;51.354;15.754;2022-07-10T11:36:52;15.10;99.90
13375;DHT22;6756;51.354;15.754;2022-07-10T11:40:53;15.30;1.00
13375;DHT22;6756;51.354;15.754;2022-07-10T11:44:56;15.60;1.00
13375;DHT22;6756;51.354;15.754;2022-07-10T11:48:58;16.10;1.00
13375;DHT22;6756;51.354;15.754;2022-07-10T11:52:59;16.50;1.00
13375;DHT22;6756;51.354;15.754;2022-07-10T11:57:05;16.70;99.90
13375;DHT22;6756;51.354;15.754;2022-07-10T12:01:07;16.10;99.90
13375;DHT22;6756;51.354;15.754;2022-07-10T12:05:31;15.70;99.90
13375;DHT22;6756;51.354;15.754;2022-07-10T12:09:32;15.70;99.90
13375;DHT22;6756;51.354;15.754;2022-07-10T12:13:37;15.90;1.00
13375;DHT22;6756;51.354;15.754;2022-07-10T12:17:50;15.90;99.90
13375;DHT22;6756;51.354;15.754;2022-07-10T12:21:51;16.10;99.90
13375;DHT22;6756;51.354;15.754;2022-07-10T12:25:52;16.40;99.90
13375;DHT22;6756;51.354;15.754;2022-07-10T12:30:00;16.70;99.90
13375;DHT22;6756;51.354;15.754;2022-07-10T12:34:04;17.30;99.90
13375;DHT22;6756;51.354;15.754;2022-07-10T12:38:05;17.80;99.90
13375;DHT22;6756;51.354;15.754;2022-07-10T12:42:30;18.00;99.90
13375;DHT22;6756;51.354;15.754;2022-07-10T12:46:32;17.80;99.90
13375;DHT22;6756;51.354;15.754;2022-07-10T12:50:33;17.30;99.90
13375;DHT22;6756;51.354;15.754;2022-07-10T12:54:36;16.60;99.90
13375;DHT22;6756;51.354;15.754;2022-07-10T12:58:37;16.30;99.90
13375;DHT22;6756;51.354;15.754;2022-07-10T13:02:43;16.40;99.90
13375;DHT22;6756;51.354;15.754;2022-07-10T13:06:44;16.60;99.90
13375;DHT22;6756;51.354;15.754;2022-07-10T13:10:48;17.00;99.90
13375;DHT22;6756;51.354;15.754;2022-07-10T13:14:49;17.50;99.90
13375;DHT22;6756;51.354;15.754;2022-07-10T13:18:50;17.90;91.00
13375;DHT22;6756;51.354;15.754;2022-07-10T13:22:51;17.80;73.30
13375;DHT22;6756;51.354;15.754;2022-07-10T13:26:53;17.70;99.90
13375;DHT22;6756;51.354;15.754;2022-07-10T13:30:57;17.50;99.90
13375;DHT22;6756;51.354;15.754;2022-07-10T13:34:58;17.50;99.90
13375;DHT22;6756;51.354;15.754;2022-07-10T13:38:59;17.30;91.80
13375;DHT22;6756;51.354;15.754;2022-07-10T13:43:00;17.20;99.90
13375;DHT22;6756;51.354;15.754;2022-07-10T13:47:01;17.50;72.80
13375;DHT22;6756;51.354;15.754;2022-07-10T13:51:02;17.60;99.90
13375;DHT22;6756;51.354;15.754;2022-07-10T13:55:03;17.60;65.90
13375;DHT22;6756;51.354;15.754;2022-07-10T13:59:06;17.90;44.30
13375;DHT22;6756;51.354;15.754;2022-07-10T14:03:07;17.70;21.90
13375;DHT22;6756;51.354;15.754;2022-07-10T14:07:08;17.60;79.20
13375;DHT22;6756;51.354;15.754;2022-07-10T14:11:08;17.70;94.90
13375;DHT22;6756;51.354;15.754;2022-07-10T14:15:10;17.90;94.00
13375;DHT22;6756;51.354;15.754;2022-07-10T14:19:11;17.90;99.90
13375;DHT22;6756;51.354;15.754;2022-07-10T14:23:12;18.00;99.90
13375;DHT22;6756;51.354;15.754;2022-07-10T14:27:13;18.20;93.80
13375;DHT22;6756;51.354;15.754;2022-07-10T14:31:14;18.50;99.90
13375;DHT22;6756;51.354;15.754;2022-07-10T14:35:15;18.80;17.20
13375;DHT22;6756;51.354;15.754;2022-07-10T14:39:15;18.70;1.00
13375;DHT22;6756;51.354;15.754;2022-07-10T14:43:17;19.00;1.00
13375;DHT22;6756;51.354;15.754;2022-07-10T14:47:18;19.20;1.00
13375;DHT22;6756;51.354;15.754;2022-07-10T14:51:19;19.40;1.00
13375;DHT22;6756;51.354;15.754;2022-07-10T14:55:20;19.30;1.00
13375;DHT22;6756;51.354;15.754;2022-07-10T14:59:20;19.30;1.00
13375;DHT22;6756;51.354;15.754;2022-07-10T15:03:21;18.90;1.00
13375;DHT22;6756;51.354;15.754;2022-07-10T15:07:22;18.50;11.90
13375;DHT22;6756;51.354;15.754;2022-07-10T15:11:23;18.00;1.00
13375;DHT22;6756;51.354;15.754;2022-07-10T15:15:26;17.80;1.00
13375;DHT22;6756;51.354;15.754;2022-07-10T15:19:27;17.90;1.00
13375;DHT22;6756;51.354;15.754;2022-07-10T15:23:27;18.20;1.00
13375;DHT22;6756;51.354;15.754;2022-07-10T15:27:29;18.50;1.00
13375;DHT22;6756;51.354;15.754;2022-07-10T15:31:29;18.70;1.00
13375;DHT22;6756;51.354;15.754;2022-07-10T15:35:31;18.60;1.00
13375;DHT22;6756;51.354;15.754;2022-07-10T15:39:32;18.90;1.00
13375;DHT22;6756;51.354;15.754;2022-07-10T15:43:41;19.00;1.00
13375;DHT22;6756;51.354;15.754;2022-07-10T15:47:43;19.00;1.00
13375;DHT22;6756;51.354;15.754;2022-07-10T15:51:44;18.70;1.00
13375;DHT22;6756;51.354;15.754;2022-07-10T15:55:44;18.70;1.00
13375;DHT22;6756;51.354;15.754;2022-07-10T15:59:45;18.80;1.00
13375;DHT22;6756;51.354;15.754;2022-07-10T16:03:46;18.60;1.00
13375;DHT22;6756;51.354;15.754;2022-07-10T16:07:48;18.30;1.00
13375;DHT22;6756;51.354;15.754;2022-07-10T16:11:49;18.20;1.00
13375;DHT22;6756;51.354;15.754;2022-07-10T16:15:50;18.20;1.00
13375;DHT22;6756;51.354;15.754;2022-07-10T16:19:51;18.20;1.00
13375;DHT22;6756;51.354;15.754;2022-07-10T16:23:52;18.10;1.00
13375;DHT22;6756;51.354;15.754;2022-07-10T16:27:53;18.20;1.00
13375;DHT22;6756;51.354;15.754;2022-07-10T16:31:54;18.40;1.00
13375;DHT22;6756;51.354;15.754;2022-07-10T16:35:55;18.30;1.00
13375;DHT22;6756;51.354;15.754;2022-07-10T16:39:56;18.00;1.00
13375;DHT22;6756;51.354;15.754;2022-07-10T16:43:57;17.90;1.00
13375;DHT22;6756;51.354;15.754;2022-07-10T16:47:58;17.90;1.00
13375;DHT22;6756;51.354;15.754;2022-07-10T16:51:59;18.00;1.00
13375;DHT22;6756;51.354;15.754;2022-07-10T16:56:01;18.00;1.00
13375;DHT22;6756;51.354;15.754;2022-07-10T17:00:04;17.90;1.00
13375;DHT22;6756;51.354;15.754;2022-07-10T17:04:07;17.80;1.00
13375;DHT22;6756;51.354;15.754;2022-07-10T17:08:07;17.80;1.00
13375;DHT22;6756;51.354;15.754;2022-07-10T17:12:10;17.60;1.00
13375;DHT22;6756;51.354;15.754;2022-07-10T17:16:11;17.50;1.00
13375;DHT22;6756;51.354;15.754;2022-07-10T17:20:12;17.40;1.00
13375;DHT22;6756;51.354;15.754;2022-07-10T17:24:12;17.30;1.00
13375;DHT22;6756;51.354;15.754;2022-07-10T17:28:13;17.30;5.10
13375;DHT22;6756;51.354;15.754;2022-07-10T17:32:14;17.40;1.00
13375;DHT22;6756;51.354;15.754;2022-07-10T17:36:15;17.40;5.50
13375;DHT22;6756;51.354;15.754;2022-07-10T17:40:16;17.40;1.00
13375;DHT22;6756;51.354;15.754;2022-07-10T17:44:18;17.50;3.80
13375;DHT22;6756;51.354;15.754;2022-07-10T17:48:23;17.50;4.00
13375;DHT22;6756;51.354;15.754;2022-07-10T17:52:24;17.50;1.00
13375;DHT22;6756;51.354;15.754;2022-07-10T17:56:24;17.50;1.00
13375;DHT22;6756;51.354;15.754;2022-07-10T18:00:25;17.50;1.00
13375;DHT22;6756;51.354;15.754;2022-07-10T18:04:26;17.40;9.70
13375;DHT22;6756;51.354;15.754;2022-07-10T18:08:27;17.30;8.70
13375;DHT22;6756;51.354;15.754;2022-07-10T18:12:28;17.30;21.90
13375;DHT22;6756;51.354;15.754;2022-07-10T18:16:29;17.30;27.80
13375;DHT22;6756;51.354;15.754;2022-07-10T18:20:31;17.20;56.60
13375;DHT22;6756;51.354;15.754;2022-07-10T18:24:36;17.10;35.70
13375;DHT22;6756;51.354;15.754;2022-07-10T18:28:37;17.20;16.60
13375;DHT22;6756;51.354;15.754;2022-07-10T18:32:39;17.60;9.00
13375;DHT22;6756;51.354;15.754;2022-07-10T18:37:00;18.20;1.00
13375;DHT22;6756;51.354;15.754;2022-07-10T18:41:04;18.50;1.00
13375;DHT22;6756;51.354;15.754;2022-07-10T18:45:06;18.60;1.00
13375;DHT22;6756;51.354;15.754;2022-07-10T18:49:09;18.70;1.00
13375;DHT22;6756;51.354;15.754;2022-07-10T18:53:10;18.70;1.00
13375;DHT22;6756;51.354;15.754;2022-07-10T18:57:11;18.30;1.00
13375;DHT22;6756;51.354;15.754;2022-07-10T19:01:14;17.70;1.00
13375;DHT22;6756;51.354;15.754;2022-07-10T19:05:15;17.10;1.00
13375;DHT22;6756;51.354;15.754;2022-07-10T19:09:15;16.70;15.20
13375;DHT22;6756;51.354;15.754;2022-07-10T19:13:16;16.40;27.20
13375;DHT22;6756;51.354;15.754;2022-07-10T19:17:17;16.20;47.90
13375;DHT22;6756;51.354;15.754;2022-07-10T19:21:20;16.00;80.10
13375;DHT22;6756;51.354;15.754;2022-07-10T19:25:21;15.80;98.70
13375;DHT22;6756;51.354;15.754;2022-07-10T19:29:22;15.50;99.90
13375;DHT22;6756;51.354;15.754;2022-07-10T19:33:23;15.30;99.90
13375;DHT22;6756;51.354;15.754;2022-07-10T19:37:24;15.00;99.90
13375;DHT22;6756;51.354;15.754;2022-07-10T19:41:25;14.70;99.90
13375;DHT22;6756;51.354;15.754;2022-07-10T19:45:26;14.40;99.90
13375;DHT22;6756;51.354;15.754;2022-07-10T19:49:29;14.10;99.90
13375;DHT22;6756;51.354;15.754;2022-07-10T19:53:30;13.80;99.90
13375;DHT22;6756;51.354;15.754;2022-07-10T19:57:31;13.60;99.90
13375;DHT22;6756;51.354;15.754;2022-07-10T20:01:32;13.30;1.00
13375;DHT22;6756;51.354;15.754;2022-07-10T20:05:33;13.10;1.00
13375;DHT22;6756;51.354;15.754;2022-07-10T20:09:35;12.80;1.00
13375;DHT22;6756;51.354;15.754;2022-07-10T20:13:36;12.60;96.70
13375;DHT22;6756;51.354;15.754;2022-07-10T20:17:38;12.50;99.90
13375;DHT22;6756;51.354;15.754;2022-07-10T20:21:41;12.30;99.90
13375;DHT22;6756;51.354;15.754;2022-07-10T20:25:43;12.30;99.90
13375;DHT22;6756;51.354;15.754;2022-07-10T20:29:44;12.30;99.90
13375;DHT22;6756;51.354;15.754;2022-07-10T20:33:45;12.30;99.90
13375;DHT22;6756;51.354;15.754;2022-07-10T20:37:46;12.30;99.90
13375;DHT22;6756;51.354;15.754;2022-07-10T20:41:47;12.30;99.90
13375;DHT22;6756;51.354;15.754;2022-07-10T20:45:48;12.30;99.90
13375;DHT22;6756;51.354;15.754;2022-07-10T20:49:48;12.30;98.60
13375;DHT22;6756;51.354;15.754;2022-07-10T20:53:49;12.30;99.90
13375;DHT22;6756;51.354;15.754;2022-07-10T20:57:50;12.30;99.90
13375;DHT22;6756;51.354;15.754;2022-07-10T21:01:51;12.20;88.90
13375;DHT22;6756;51.354;15.754;2022-07-10T21:05:55;12.20;85.70
13375;DHT22;6756;51.354;15.754;2022-07-10T21:09:56;12.10;99.90
13375;DHT22;6756;51.354;15.754;2022-07-10T21:13:56;11.90;99.90
13375;DHT22;6756;51.354;15.754;2022-07-10T21:17:58;11.80;99.90
13375;DHT22;6756;51.354;15.754;2022-07-10T21:21:59;11.70;99.90
13375;DHT22;6756;51.354;15.754;2022-07-10T21:26:00;11.60;99.90
13375;DHT22;6756;51.354;15.754;2022-07-10T21:30:01;11.50;99.90
13375;DHT22;6756;51.354;15.754;2022-07-10T21:34:03;11.40;99.90
13375;DHT22;6756;51.354;15.754;2022-07-10T21:38:04;11.40;99.90
13375;DHT22;6756;51.354;15.754;2022-07-10T21:42:05;11.30;1.00
13375;DHT22;6756;51.354;15.754;2022-07-10T21:46:06;11.30;1.00
13375;DHT22;6756;51.354;15.754;2022-07-10T21:50:07;11.20;1.00
13375;DHT22;6756;51.354;15.754;2022-07-10T21:54:08;11.20;1.00
13375;DHT22;6756;51.354;15.754;2022-07-10T21:58:09;11.20;1.00
13375;DHT22;6756;51.354;15.754;2022-07-10T22:02:10;11.30;1.00
13375;DHT22;6756;51.354;15.754;2022-07-10T22:06:11;11.30;1.00
13375;DHT22;6756;51.354;15.754;2022-07-10T22:10:12;11.30;1.00
13375;DHT22;6756;51.354;15.754;2022-07-10T22:14:13;11.20;16.40
13375;DHT22;6756;51.354;15.754;2022-07-10T22:18:14;11.20;99.90
13375;DHT22;6756;51.354;15.754;2022-07-10T22:22:14;11.00;99.90
13375;DHT22;6756;51.354;15.754;2022-07-10T22:26:16;11.00;99.90
13375;DHT22;6756;51.354;15.754;2022-07-10T22:30:16;10.90;99.90
13375;DHT22;6756;51.354;15.754;2022-07-10T22:34:36;10.80;99.90
13375;DHT22;6756;51.354;15.754;2022-07-10T22:38:37;10.80;1.00
13375;DHT22;6756;51.354;15.754;2022-07-10T22:42:38;10.70;1.00
13375;DHT22;6756;51.354;15.754;2022-07-10T22:46:39;10.70;29.00
13375;DHT22;6756;51.354;15.754;2022-07-10T22:50:40;10.60;1.00
13375;DHT22;6756;51.354;15.754;2022-07-10T22:54:40;10.50;98.30
13375;DHT22;6756;51.354;15.754;2022-07-10T22:58:41;10.50;99.90
13375;DHT22;6756;51.354;15.754;2022-07-10T23:02:42;10.50;99.90
13375;DHT22;6756;51.354;15.754;2022-07-10T23:06:43;10.40;99.90
13375;DHT22;6756;51.354;15.754;2022-07-10T23:10:43;10.30;99.90
13375;DHT22;6756;51.354;15.754;2022-07-10T23:14:49;10.30;1.00
13375;DHT22;6756;51.354;15.754;2022-07-10T23:18:50;10.20;1.00
13375;DHT22;6756;51.354;15.754;2022-07-10T23:22:50;10.20;1.00
13375;DHT22;6756;51.354;15.754;2022-07-10T23:26:51;10.10;1.00
13375;DHT22;6756;51.354;15.754;2022-07-10T23:30:52;10.10;41.90
13375;DHT22;6756;51.354;15.754;2022-07-10T23:34:53;10.10;1.00
13375;DHT22;6756;51.354;15.754;2022-07-10T23:38:54;10.00;99.90
13375;DHT22;6756;51.354;15.754;2022-07-10T23:42:55;10.00;41.90
13375;DHT22;6756;51.354;15.754;2022-07-10T23:46:57;10.00;99.90
13375;DHT22;6756;51.354;15.754;2022-07-10T23:50:58;10.00;99.90
13375;DHT22;6756;51.354;15.754;2022-07-10T23:54:59;10.10;45.90
13375;DHT22;6756;51.354;15.754;2022-07-10T23:58:59;10.10;1.00
